sensor_id;sensor_type;location;lat;lon;timestamp;P1;durP1;ratioP1;P2;durP2;ratioP2
70216;SDS011;65567;55.684;37.570;2023-04-24T00:00:56;11.40;;;6.20;;
70216;SDS011;65567;55.684;37.570;2023-04-24T00:03:22;10.82;;;6.13;;
70216;SDS011;65567;55.684;37.570;2023-04-24T00:05:49;10.73;;;6.20;;
70216;SDS011;65567;55.684;37.570;2023-04-24T00:08:15;7.20;;;5.22;;
70216;SDS011;65567;55.684;37.570;2023-04-24T00:10:41;9.68;;;6.40;;
70216;SDS011;65567;55.684;37.570;2023-04-24T00:13:07;9.40;;;6.47;;
70216;SDS011;65567;55.684;37.570;2023-04-24T00:15:33;10.85;;;6.22;;
70216;SDS011;65567;55.684;37.570;2023-04-24T00:17:59;8.27;;;6.15;;
70216;SDS011;65567;55.684;37.570;2023-04-24T00:20:26;10.40;;;5.88;;
70216;SDS011;65567;55.684;37.570;2023-04-24T00:22:54;9.07;;;6.50;;
70216;SDS011;65567;55.684;37.570;2023-04-24T00:25:20;8.57;;;6.30;;
70216;SDS011;65567;55.684;37.570;2023-04-24T00:27:46;9.32;;;6.07;;
70216;SDS011;65567;55.684;37.570;2023-04-24T00:30:12;12.45;;;7.22;;
70216;SDS011;65567;55.684;37.570;2023-04-24T00:32:38;9.43;;;6.85;;
70216;SDS011;65567;55.684;37.570;2023-04-24T00:35:04;11.23;;;7.28;;
70216;SDS011;65567;55.684;37.570;2023-04-24T00:37:34;13.98;;;7.13;;
70216;SDS011;65567;55.684;37.570;2023-04-24T00:40:00;10.77;;;6.65;;
70216;SDS011;65567;55.684;37.570;2023-04-24T00:42:26;8.90;;;6.93;;
70216;SDS011;65567;55.684;37.570;2023-04-24T00:44:52;9.07;;;6.68;;
70216;SDS011;65567;55.684;37.570;2023-04-24T00:47:18;9.80;;;6.53;;
70216;SDS011;65567;55.684;37.570;2023-04-24T00:49:45;12.02;;;7.35;;
70216;SDS011;65567;55.684;37.570;2023-04-24T00:52:11;10.00;;;7.03;;
70216;SDS011;65567;55.684;37.570;2023-04-24T00:54:37;9.43;;;7.22;;
70216;SDS011;65567;55.684;37.570;2023-04-24T00:57:03;9.85;;;7.10;;
70216;SDS011;65567;55.684;37.570;2023-04-24T00:59:29;12.90;;;6.95;;
70216;SDS011;65567;55.684;37.570;2023-04-24T01:01:56;10.50;;;7.35;;
70216;SDS011;65567;55.684;37.570;2023-04-24T01:04:23;10.75;;;8.00;;
70216;SDS011;65567;55.684;37.570;2023-04-24T01:06:51;10.48;;;7.72;;
70216;SDS011;65567;55.684;37.570;2023-04-24T01:09:18;14.02;;;8.25;;
70216;SDS011;65567;55.684;37.570;2023-04-24T01:11:44;12.20;;;8.35;;
70216;SDS011;65567;55.684;37.570;2023-04-24T01:14:10;12.02;;;8.50;;
70216;SDS011;65567;55.684;37.570;2023-04-24T01:16:37;10.73;;;7.78;;
70216;SDS011;65567;55.684;37.570;2023-04-24T01:19:06;12.15;;;9.10;;
70216;SDS011;65567;55.684;37.570;2023-04-24T01:21:34;13.70;;;9.35;;
70216;SDS011;65567;55.684;37.570;2023-04-24T01:24:06;12.57;;;9.23;;
70216;SDS011;65567;55.684;37.570;2023-04-24T01:26:33;15.38;;;9.05;;
70216;SDS011;65567;55.684;37.570;2023-04-24T01:28:59;10.63;;;7.68;;
70216;SDS011;65567;55.684;37.570;2023-04-24T01:31:25;11.85;;;8.35;;
70216;SDS011;65567;55.684;37.570;2023-04-24T01:33:51;11.57;;;7.88;;
70216;SDS011;65567;55.684;37.570;2023-04-24T01:36:18;13.57;;;7.45;;
70216;SDS011;65567;55.684;37.570;2023-04-24T01:38:45;10.90;;;7.60;;
70216;SDS011;65567;55.684;37.570;2023-04-24T01:41:11;8.68;;;7.18;;
70216;SDS011;65567;55.684;37.570;2023-04-24T01:43:37;10.30;;;6.53;;
70216;SDS011;65567;55.684;37.570;2023-04-24T01:46:03;10.20;;;6.70;;
70216;SDS011;65567;55.684;37.570;2023-04-24T01:48:29;9.20;;;7.03;;
70216;SDS011;65567;55.684;37.570;2023-04-24T01:50:56;9.73;;;6.10;;
70216;SDS011;65567;55.684;37.570;2023-04-24T01:53:22;10.65;;;6.95;;
70216;SDS011;65567;55.684;37.570;2023-04-24T01:55:48;9.07;;;6.28;;
70216;SDS011;65567;55.684;37.570;2023-04-24T01:58:14;8.93;;;6.47;;
70216;SDS011;65567;55.684;37.570;2023-04-24T02:00:40;9.15;;;6.05;;
70216;SDS011;65567;55.684;37.570;2023-04-24T02:03:06;8.38;;;6.88;;
70216;SDS011;65567;55.684;37.570;2023-04-24T02:05:32;9.27;;;6.30;;
70216;SDS011;65567;55.684;37.570;2023-04-24T02:07:58;8.70;;;6.60;;
70216;SDS011;65567;55.684;37.570;2023-04-24T02:10:25;10.52;;;6.70;;
70216;SDS011;65567;55.684;37.570;2023-04-24T02:12:50;10.27;;;6.45;;
70216;SDS011;65567;55.684;37.570;2023-04-24T02:15:16;10.43;;;6.82;;
70216;SDS011;65567;55.684;37.570;2023-04-24T02:17:43;10.82;;;7.22;;
70216;SDS011;65567;55.684;37.570;2023-04-24T02:20:09;9.50;;;6.57;;
70216;SDS011;65567;55.684;37.570;2023-04-24T02:22:35;10.95;;;7.20;;
70216;SDS011;65567;55.684;37.570;2023-04-24T02:25:00;8.88;;;5.78;;
70216;SDS011;65567;55.684;37.570;2023-04-24T02:27:26;8.90;;;6.82;;
70216;SDS011;65567;55.684;37.570;2023-04-24T02:29:52;10.43;;;6.30;;
70216;SDS011;65567;55.684;37.570;2023-04-24T02:32:18;8.27;;;6.00;;
70216;SDS011;65567;55.684;37.570;2023-04-24T02:34:44;8.63;;;5.68;;
70216;SDS011;65567;55.684;37.570;2023-04-24T02:37:10;7.60;;;5.72;;
70216;SDS011;65567;55.684;37.570;2023-04-24T02:39:36;8.80;;;5.22;;
70216;SDS011;65567;55.684;37.570;2023-04-24T02:42:01;8.65;;;5.68;;
70216;SDS011;65567;55.684;37.570;2023-04-24T02:44:28;7.72;;;5.53;;
70216;SDS011;65567;55.684;37.570;2023-04-24T02:46:53;8.93;;;5.38;;
70216;SDS011;65567;55.684;37.570;2023-04-24T02:49:19;8.77;;;5.50;;
70216;SDS011;65567;55.684;37.570;2023-04-24T02:51:45;8.13;;;5.20;;
70216;SDS011;65567;55.684;37.570;2023-04-24T02:54:11;8.35;;;5.28;;
70216;SDS011;65567;55.684;37.570;2023-04-24T02:56:37;7.90;;;5.05;;
70216;SDS011;65567;55.684;37.570;2023-04-24T02:59:03;8.02;;;5.22;;
70216;SDS011;65567;55.684;37.570;2023-04-24T03:01:29;7.15;;;5.30;;
70216;SDS011;65567;55.684;37.570;2023-04-24T03:03:55;6.78;;;5.50;;
70216;SDS011;65567;55.684;37.570;2023-04-24T03:06:20;8.60;;;4.82;;
70216;SDS011;65567;55.684;37.570;2023-04-24T03:08:46;6.43;;;5.00;;
70216;SDS011;65567;55.684;37.570;2023-04-24T03:11:12;7.75;;;5.10;;
70216;SDS011;65567;55.684;37.570;2023-04-24T03:13:38;9.90;;;5.00;;
70216;SDS011;65567;55.684;37.570;2023-04-24T03:16:04;9.70;;;5.18;;
70216;SDS011;65567;55.684;37.570;2023-04-24T03:18:30;7.00;;;5.28;;
70216;SDS011;65567;55.684;37.570;2023-04-24T03:20:56;10.23;;;5.18;;
70216;SDS011;65567;55.684;37.570;2023-04-24T03:23:22;7.75;;;5.30;;
70216;SDS011;65567;55.684;37.570;2023-04-24T03:25:48;9.35;;;5.70;;
70216;SDS011;65567;55.684;37.570;2023-04-24T03:28:14;11.82;;;4.97;;
70216;SDS011;65567;55.684;37.570;2023-04-24T03:30:40;11.52;;;6.13;;
70216;SDS011;65567;55.684;37.570;2023-04-24T03:33:06;10.13;;;5.55;;
70216;SDS011;65567;55.684;37.570;2023-04-24T03:35:32;10.55;;;5.88;;
70216;SDS011;65567;55.684;37.570;2023-04-24T03:37:58;18.30;;;6.35;;
70216;SDS011;65567;55.684;37.570;2023-04-24T03:40:24;17.33;;;6.05;;
70216;SDS011;65567;55.684;37.570;2023-04-24T03:42:50;11.32;;;6.00;;
70216;SDS011;65567;55.684;37.570;2023-04-24T03:45:16;16.13;;;6.38;;
70216;SDS011;65567;55.684;37.570;2023-04-24T03:47:42;11.77;;;6.40;;
70216;SDS011;65567;55.684;37.570;2023-04-24T03:50:08;13.88;;;7.53;;
70216;SDS011;65567;55.684;37.570;2023-04-24T03:52:34;13.10;;;6.45;;
70216;SDS011;65567;55.684;37.570;2023-04-24T03:55:00;12.50;;;7.05;;
70216;SDS011;65567;55.684;37.570;2023-04-24T03:57:26;13.65;;;6.05;;
70216;SDS011;65567;55.684;37.570;2023-04-24T03:59:52;10.80;;;6.45;;
70216;SDS011;65567;55.684;37.570;2023-04-24T04:02:19;11.93;;;5.95;;
70216;SDS011;65567;55.684;37.570;2023-04-24T04:04:44;12.32;;;5.65;;
70216;SDS011;65567;55.684;37.570;2023-04-24T04:07:10;11.00;;;6.43;;
70216;SDS011;65567;55.684;37.570;2023-04-24T04:09:38;11.43;;;6.82;;
70216;SDS011;65567;55.684;37.570;2023-04-24T04:12:03;12.30;;;6.20;;
70216;SDS011;65567;55.684;37.570;2023-04-24T04:14:29;18.50;;;6.90;;
70216;SDS011;65567;55.684;37.570;2023-04-24T04:16:55;12.00;;;5.97;;
70216;SDS011;65567;55.684;37.570;2023-04-24T04:19:21;13.80;;;7.22;;
70216;SDS011;65567;55.684;37.570;2023-04-24T04:21:47;12.57;;;5.55;;
70216;SDS011;65567;55.684;37.570;2023-04-24T04:24:18;10.52;;;5.75;;
70216;SDS011;65567;55.684;37.570;2023-04-24T04:26:46;11.75;;;5.68;;
70216;SDS011;65567;55.684;37.570;2023-04-24T04:29:13;8.48;;;5.30;;
70216;SDS011;65567;55.684;37.570;2023-04-24T04:31:39;8.30;;;5.03;;
70216;SDS011;65567;55.684;37.570;2023-04-24T04:34:05;12.45;;;5.30;;
70216;SDS011;65567;55.684;37.570;2023-04-24T04:36:32;9.25;;;4.80;;
70216;SDS011;65567;55.684;37.570;2023-04-24T04:39:02;13.03;;;5.77;;
70216;SDS011;65567;55.684;37.570;2023-04-24T04:41:29;10.52;;;5.00;;
70216;SDS011;65567;55.684;37.570;2023-04-24T04:43:55;9.20;;;5.25;;
70216;SDS011;65567;55.684;37.570;2023-04-24T04:46:23;9.70;;;4.93;;
70216;SDS011;65567;55.684;37.570;2023-04-24T04:48:52;7.10;;;4.63;;
70216;SDS011;65567;55.684;37.570;2023-04-24T04:51:18;9.35;;;5.13;;
70216;SDS011;65567;55.684;37.570;2023-04-24T04:53:45;8.43;;;5.22;;
70216;SDS011;65567;55.684;37.570;2023-04-24T04:56:11;10.65;;;5.47;;
70216;SDS011;65567;55.684;37.570;2023-04-24T04:58:36;9.85;;;5.03;;
70216;SDS011;65567;55.684;37.570;2023-04-24T05:01:02;8.48;;;4.80;;
70216;SDS011;65567;55.684;37.570;2023-04-24T05:03:29;11.27;;;5.63;;
70216;SDS011;65567;55.684;37.570;2023-04-24T05:05:54;13.88;;;5.10;;
70216;SDS011;65567;55.684;37.570;2023-04-24T05:08:20;14.50;;;4.90;;
70216;SDS011;65567;55.684;37.570;2023-04-24T05:10:49;9.32;;;4.82;;
70216;SDS011;65567;55.684;37.570;2023-04-24T05:13:15;9.13;;;4.57;;
70216;SDS011;65567;55.684;37.570;2023-04-24T05:15:41;7.20;;;4.53;;
70216;SDS011;65567;55.684;37.570;2023-04-24T05:18:06;11.98;;;4.80;;
70216;SDS011;65567;55.684;37.570;2023-04-24T05:20:32;10.07;;;4.90;;
70216;SDS011;65567;55.684;37.570;2023-04-24T05:22:58;20.20;;;5.90;;
70216;SDS011;65567;55.684;37.570;2023-04-24T05:25:24;10.10;;;5.07;;
70216;SDS011;65567;55.684;37.570;2023-04-24T05:27:50;10.90;;;5.10;;
70216;SDS011;65567;55.684;37.570;2023-04-24T05:30:15;19.33;;;6.13;;
70216;SDS011;65567;55.684;37.570;2023-04-24T05:32:41;13.57;;;5.57;;
70216;SDS011;65567;55.684;37.570;2023-04-24T05:35:07;9.30;;;4.25;;
70216;SDS011;65567;55.684;37.570;2023-04-24T05:37:33;11.23;;;4.80;;
70216;SDS011;65567;55.684;37.570;2023-04-24T05:39:59;8.05;;;4.60;;
70216;SDS011;65567;55.684;37.570;2023-04-24T05:42:25;9.00;;;4.55;;
70216;SDS011;65567;55.684;37.570;2023-04-24T05:44:50;6.82;;;4.45;;
70216;SDS011;65567;55.684;37.570;2023-04-24T05:47:16;8.60;;;4.43;;
70216;SDS011;65567;55.684;37.570;2023-04-24T05:49:47;10.38;;;4.10;;
70216;SDS011;65567;55.684;37.570;2023-04-24T05:52:13;6.88;;;4.38;;
70216;SDS011;65567;55.684;37.570;2023-04-24T05:54:39;7.03;;;4.18;;
70216;SDS011;65567;55.684;37.570;2023-04-24T05:57:05;6.88;;;4.53;;
70216;SDS011;65567;55.684;37.570;2023-04-24T05:59:36;9.40;;;4.90;;
70216;SDS011;65567;55.684;37.570;2023-04-24T06:02:06;8.45;;;4.75;;
70216;SDS011;65567;55.684;37.570;2023-04-24T06:04:32;20.77;;;6.28;;
70216;SDS011;65567;55.684;37.570;2023-04-24T06:06:59;11.60;;;4.18;;
70216;SDS011;65567;55.684;37.570;2023-04-24T06:09:25;7.50;;;4.18;;
70216;SDS011;65567;55.684;37.570;2023-04-24T06:11:51;5.68;;;3.65;;
70216;SDS011;65567;55.684;37.570;2023-04-24T06:14:18;6.38;;;3.70;;
70216;SDS011;65567;55.684;37.570;2023-04-24T06:16:45;5.65;;;3.83;;
70216;SDS011;65567;55.684;37.570;2023-04-24T06:19:10;5.60;;;4.18;;
70216;SDS011;65567;55.684;37.570;2023-04-24T06:21:36;6.82;;;3.78;;
70216;SDS011;65567;55.684;37.570;2023-04-24T06:24:02;8.15;;;3.30;;
70216;SDS011;65567;55.684;37.570;2023-04-24T06:26:29;6.10;;;3.80;;
70216;SDS011;65567;55.684;37.570;2023-04-24T06:28:55;7.22;;;4.05;;
70216;SDS011;65567;55.684;37.570;2023-04-24T06:31:23;8.48;;;4.53;;
70216;SDS011;65567;55.684;37.570;2023-04-24T06:33:49;4.18;;;2.55;;
70216;SDS011;65567;55.684;37.570;2023-04-24T06:36:15;8.00;;;4.18;;
70216;SDS011;65567;55.684;37.570;2023-04-24T06:38:42;5.20;;;3.72;;
70216;SDS011;65567;55.684;37.570;2023-04-24T06:41:09;6.38;;;4.28;;
70216;SDS011;65567;55.684;37.570;2023-04-24T06:43:35;9.13;;;4.43;;
70216;SDS011;65567;55.684;37.570;2023-04-24T06:46:01;9.05;;;4.50;;
70216;SDS011;65567;55.684;37.570;2023-04-24T06:48:28;6.97;;;3.80;;
70216;SDS011;65567;55.684;37.570;2023-04-24T06:50:54;11.50;;;5.78;;
70216;SDS011;65567;55.684;37.570;2023-04-24T06:53:20;6.57;;;3.95;;
70216;SDS011;65567;55.684;37.570;2023-04-24T06:55:46;7.82;;;3.53;;
70216;SDS011;65567;55.684;37.570;2023-04-24T06:58:13;5.47;;;3.55;;
70216;SDS011;65567;55.684;37.570;2023-04-24T07:00:40;12.40;;;4.25;;
70216;SDS011;65567;55.684;37.570;2023-04-24T07:03:06;5.20;;;2.53;;
70216;SDS011;65567;55.684;37.570;2023-04-24T07:05:32;10.00;;;4.53;;
70216;SDS011;65567;55.684;37.570;2023-04-24T07:08:00;5.70;;;3.83;;
70216;SDS011;65567;55.684;37.570;2023-04-24T07:10:27;7.30;;;3.92;;
70216;SDS011;65567;55.684;37.570;2023-04-24T07:12:54;7.68;;;3.88;;
70216;SDS011;65567;55.684;37.570;2023-04-24T07:15:21;7.68;;;3.45;;
70216;SDS011;65567;55.684;37.570;2023-04-24T07:17:48;7.45;;;3.80;;
70216;SDS011;65567;55.684;37.570;2023-04-24T07:20:14;7.25;;;3.58;;
70216;SDS011;65567;55.684;37.570;2023-04-24T07:22:40;7.50;;;3.83;;
70216;SDS011;65567;55.684;37.570;2023-04-24T07:25:07;7.07;;;4.65;;
70216;SDS011;65567;55.684;37.570;2023-04-24T07:27:34;8.90;;;4.72;;
70216;SDS011;65567;55.684;37.570;2023-04-24T07:30:01;10.65;;;4.30;;
70216;SDS011;65567;55.684;37.570;2023-04-24T07:32:29;7.75;;;3.67;;
70216;SDS011;65567;55.684;37.570;2023-04-24T07:34:55;8.00;;;4.07;;
70216;SDS011;65567;55.684;37.570;2023-04-24T07:37:21;5.95;;;3.67;;
70216;SDS011;65567;55.684;37.570;2023-04-24T07:39:47;9.50;;;3.83;;
70216;SDS011;65567;55.684;37.570;2023-04-24T07:42:14;9.15;;;3.60;;
70216;SDS011;65567;55.684;37.570;2023-04-24T07:44:39;8.20;;;4.30;;
70216;SDS011;65567;55.684;37.570;2023-04-24T07:47:05;9.25;;;5.18;;
70216;SDS011;65567;55.684;37.570;2023-04-24T07:49:31;19.73;;;3.60;;
70216;SDS011;65567;55.684;37.570;2023-04-24T07:51:59;8.05;;;4.00;;
70216;SDS011;65567;55.684;37.570;2023-04-24T07:54:26;5.03;;;3.15;;
70216;SDS011;65567;55.684;37.570;2023-04-24T07:56:53;8.80;;;4.03;;
70216;SDS011;65567;55.684;37.570;2023-04-24T07:59:20;7.57;;;3.47;;
70216;SDS011;65567;55.684;37.570;2023-04-24T08:01:46;15.48;;;4.45;;
70216;SDS011;65567;55.684;37.570;2023-04-24T08:04:12;7.38;;;3.70;;
70216;SDS011;65567;55.684;37.570;2023-04-24T08:06:39;10.45;;;4.22;;
70216;SDS011;65567;55.684;37.570;2023-04-24T08:09:05;7.38;;;3.28;;
70216;SDS011;65567;55.684;37.570;2023-04-24T08:11:31;5.72;;;2.92;;
70216;SDS011;65567;55.684;37.570;2023-04-24T08:13:58;4.57;;;3.50;;
70216;SDS011;65567;55.684;37.570;2023-04-24T08:16:23;5.28;;;2.90;;
70216;SDS011;65567;55.684;37.570;2023-04-24T08:18:49;6.97;;;4.38;;
70216;SDS011;65567;55.684;37.570;2023-04-24T08:21:16;8.60;;;3.63;;
70216;SDS011;65567;55.684;37.570;2023-04-24T08:23:44;14.23;;;3.85;;
70216;SDS011;65567;55.684;37.570;2023-04-24T08:26:10;13.02;;;4.43;;
70216;SDS011;65567;55.684;37.570;2023-04-24T08:28:37;9.75;;;3.75;;
70216;SDS011;65567;55.684;37.570;2023-04-24T08:31:03;7.78;;;3.47;;
70216;SDS011;65567;55.684;37.570;2023-04-24T08:33:29;6.55;;;3.38;;
70216;SDS011;65567;55.684;37.570;2023-04-24T08:36:00;6.00;;;3.47;;
70216;SDS011;65567;55.684;37.570;2023-04-24T08:38:27;10.45;;;4.22;;
70216;SDS011;65567;55.684;37.570;2023-04-24T08:40:53;12.40;;;4.55;;
70216;SDS011;65567;55.684;37.570;2023-04-24T08:43:21;5.20;;;3.70;;
70216;SDS011;65567;55.684;37.570;2023-04-24T08:45:48;4.25;;;3.10;;
70216;SDS011;65567;55.684;37.570;2023-04-24T08:48:14;12.98;;;3.80;;
70216;SDS011;65567;55.684;37.570;2023-04-24T08:50:40;6.50;;;3.80;;
70216;SDS011;65567;55.684;37.570;2023-04-24T08:53:09;8.52;;;5.75;;
70216;SDS011;65567;55.684;37.570;2023-04-24T08:55:37;6.35;;;3.80;;
70216;SDS011;65567;55.684;37.570;2023-04-24T08:58:03;6.10;;;3.70;;
70216;SDS011;65567;55.684;37.570;2023-04-24T09:00:29;5.63;;;3.60;;
70216;SDS011;65567;55.684;37.570;2023-04-24T09:02:56;10.15;;;4.00;;
70216;SDS011;65567;55.684;37.570;2023-04-24T09:05:25;8.27;;;4.32;;
70216;SDS011;65567;55.684;37.570;2023-04-24T09:07:53;6.65;;;3.88;;
70216;SDS011;65567;55.684;37.570;2023-04-24T09:10:24;8.38;;;4.00;;
70216;SDS011;65567;55.684;37.570;2023-04-24T09:12:51;8.10;;;4.70;;
70216;SDS011;65567;55.684;37.570;2023-04-24T09:15:20;7.03;;;3.25;;
70216;SDS011;65567;55.684;37.570;2023-04-24T09:17:46;5.85;;;3.60;;
70216;SDS011;65567;55.684;37.570;2023-04-24T09:20:12;5.65;;;3.70;;
70216;SDS011;65567;55.684;37.570;2023-04-24T09:22:38;9.20;;;4.30;;
70216;SDS011;65567;55.684;37.570;2023-04-24T09:25:05;8.88;;;4.45;;
70216;SDS011;65567;55.684;37.570;2023-04-24T09:27:33;8.13;;;3.70;;
70216;SDS011;65567;55.684;37.570;2023-04-24T09:29:59;5.78;;;3.80;;
70216;SDS011;65567;55.684;37.570;2023-04-24T09:32:26;6.68;;;4.00;;
70216;SDS011;65567;55.684;37.570;2023-04-24T09:37:40;4.97;;;3.70;;
70216;SDS011;65567;55.684;37.570;2023-04-24T09:40:17;3.13;;;2.35;;
70216;SDS011;65567;55.684;37.570;2023-04-24T09:42:54;8.90;;;4.03;;
70216;SDS011;65567;55.684;37.570;2023-04-24T09:45:22;7.60;;;4.30;;
70216;SDS011;65567;55.684;37.570;2023-04-24T09:47:52;4.97;;;3.50;;
70216;SDS011;65567;55.684;37.570;2023-04-24T09:50:19;5.95;;;3.70;;
70216;SDS011;65567;55.684;37.570;2023-04-24T09:52:46;13.23;;;7.35;;
70216;SDS011;65567;55.684;37.570;2023-04-24T09:55:21;7.22;;;3.58;;
70216;SDS011;65567;55.684;37.570;2023-04-24T09:57:47;8.68;;;3.97;;
70216;SDS011;65567;55.684;37.570;2023-04-24T10:00:17;8.52;;;3.90;;
70216;SDS011;65567;55.684;37.570;2023-04-24T10:02:49;6.35;;;3.72;;
70216;SDS011;65567;55.684;37.570;2023-04-24T10:05:16;7.18;;;3.58;;
70216;SDS011;65567;55.684;37.570;2023-04-24T10:07:43;7.82;;;3.88;;
70216;SDS011;65567;55.684;37.570;2023-04-24T10:10:09;9.90;;;4.03;;
70216;SDS011;65567;55.684;37.570;2023-04-24T10:12:36;7.85;;;3.60;;
70216;SDS011;65567;55.684;37.570;2023-04-24T10:15:03;8.93;;;4.30;;
70216;SDS011;65567;55.684;37.570;2023-04-24T10:17:30;5.30;;;3.42;;
70216;SDS011;65567;55.684;37.570;2023-04-24T10:19:57;14.23;;;3.80;;
70216;SDS011;65567;55.684;37.570;2023-04-24T10:22:26;14.55;;;3.90;;
70216;SDS011;65567;55.684;37.570;2023-04-24T10:24:55;6.57;;;3.60;;
70216;SDS011;65567;55.684;37.570;2023-04-24T10:27:22;5.07;;;2.00;;
70216;SDS011;65567;55.684;37.570;2023-04-24T10:29:50;4.00;;;2.80;;
70216;SDS011;65567;55.684;37.570;2023-04-24T10:32:18;5.22;;;2.92;;
70216;SDS011;65567;55.684;37.570;2023-04-24T10:34:44;5.97;;;3.20;;
70216;SDS011;65567;55.684;37.570;2023-04-24T10:37:10;3.63;;;2.90;;
70216;SDS011;65567;55.684;37.570;2023-04-24T10:39:38;6.97;;;3.38;;
70216;SDS011;65567;55.684;37.570;2023-04-24T10:42:15;4.38;;;3.40;;
70216;SDS011;65567;55.684;37.570;2023-04-24T10:44:41;4.93;;;3.25;;
70216;SDS011;65567;55.684;37.570;2023-04-24T10:47:12;7.90;;;3.53;;
70216;SDS011;65567;55.684;37.570;2023-04-24T10:49:39;9.52;;;3.78;;
70216;SDS011;65567;55.684;37.570;2023-04-24T10:52:05;4.53;;;3.00;;
70216;SDS011;65567;55.684;37.570;2023-04-24T10:59:48;4.45;;;3.03;;
70216;SDS011;65567;55.684;37.570;2023-04-24T11:02:16;8.43;;;4.05;;
70216;SDS011;65567;55.684;37.570;2023-04-24T11:04:46;6.75;;;3.40;;
70216;SDS011;65567;55.684;37.570;2023-04-24T11:07:16;10.65;;;3.63;;
70216;SDS011;65567;55.684;37.570;2023-04-24T11:09:42;6.25;;;2.92;;
70216;SDS011;65567;55.684;37.570;2023-04-24T11:12:09;5.53;;;3.10;;
70216;SDS011;65567;55.684;37.570;2023-04-24T11:17:31;6.15;;;3.60;;
70216;SDS011;65567;55.684;37.570;2023-04-24T11:20:04;6.50;;;3.30;;
70216;SDS011;65567;55.684;37.570;2023-04-24T11:22:33;6.03;;;3.30;;
70216;SDS011;65567;55.684;37.570;2023-04-24T11:25:01;7.20;;;3.67;;
70216;SDS011;65567;55.684;37.570;2023-04-24T11:27:32;11.13;;;4.07;;
70216;SDS011;65567;55.684;37.570;2023-04-24T11:30:05;16.65;;;3.78;;
70216;SDS011;65567;55.684;37.570;2023-04-24T11:34:59;8.73;;;3.38;;
70216;SDS011;65567;55.684;37.570;2023-04-24T11:37:27;5.07;;;2.60;;
70216;SDS011;65567;55.684;37.570;2023-04-24T11:39:55;15.43;;;4.88;;
70216;SDS011;65567;55.684;37.570;2023-04-24T11:42:22;11.20;;;4.30;;
70216;SDS011;65567;55.684;37.570;2023-04-24T11:44:49;5.55;;;3.60;;
70216;SDS011;65567;55.684;37.570;2023-04-24T11:47:17;11.52;;;4.05;;
70216;SDS011;65567;55.684;37.570;2023-04-24T11:49:43;4.22;;;3.20;;
70216;SDS011;65567;55.684;37.570;2023-04-24T11:52:11;11.30;;;3.90;;
70216;SDS011;65567;55.684;37.570;2023-04-24T11:54:46;5.88;;;3.63;;
70216;SDS011;65567;55.684;37.570;2023-04-24T11:57:14;6.50;;;3.58;;
70216;SDS011;65567;55.684;37.570;2023-04-24T11:59:40;3.15;;;1.65;;
70216;SDS011;65567;55.684;37.570;2023-04-24T12:02:06;4.30;;;2.35;;
70216;SDS011;65567;55.684;37.570;2023-04-24T12:04:39;8.32;;;3.70;;
70216;SDS011;65567;55.684;37.570;2023-04-24T12:07:06;7.18;;;3.58;;
70216;SDS011;65567;55.684;37.570;2023-04-24T12:12:10;5.72;;;3.22;;
70216;SDS011;65567;55.684;37.570;2023-04-24T12:17:23;4.80;;;2.58;;
70216;SDS011;65567;55.684;37.570;2023-04-24T12:22:48;5.93;;;3.20;;
70216;SDS011;65567;55.684;37.570;2023-04-24T12:25:16;4.32;;;2.88;;
70216;SDS011;65567;55.684;37.570;2023-04-24T12:27:51;7.97;;;3.13;;
70216;SDS011;65567;55.684;37.570;2023-04-24T12:30:19;9.40;;;4.15;;
70216;SDS011;65567;55.684;37.570;2023-04-24T12:32:48;8.35;;;2.90;;
70216;SDS011;65567;55.684;37.570;2023-04-24T12:35:20;4.55;;;2.70;;
70216;SDS011;65567;55.684;37.570;2023-04-24T12:37:49;9.35;;;2.90;;
70216;SDS011;65567;55.684;37.570;2023-04-24T12:40:16;8.35;;;2.40;;
70216;SDS011;65567;55.684;37.570;2023-04-24T12:42:43;4.07;;;2.97;;
70216;SDS011;65567;55.684;37.570;2023-04-24T12:45:11;4.53;;;2.85;;
70216;SDS011;65567;55.684;37.570;2023-04-24T12:47:38;8.32;;;3.30;;
70216;SDS011;65567;55.684;37.570;2023-04-24T12:50:05;16.65;;;4.15;;
70216;SDS011;65567;55.684;37.570;2023-04-24T12:52:33;6.45;;;3.17;;
70216;SDS011;65567;55.684;37.570;2023-04-24T12:54:59;4.57;;;2.13;;
70216;SDS011;65567;55.684;37.570;2023-04-24T12:57:27;5.22;;;1.80;;
70216;SDS011;65567;55.684;37.570;2023-04-24T12:59:54;2.67;;;2.08;;
70216;SDS011;65567;55.684;37.570;2023-04-24T13:02:25;5.68;;;2.78;;
70216;SDS011;65567;55.684;37.570;2023-04-24T13:04:52;4.63;;;2.85;;
70216;SDS011;65567;55.684;37.570;2023-04-24T13:07:19;6.15;;;2.97;;
70216;SDS011;65567;55.684;37.570;2023-04-24T13:09:45;4.75;;;2.70;;
70216;SDS011;65567;55.684;37.570;2023-04-24T13:12:13;6.05;;;2.97;;
70216;SDS011;65567;55.684;37.570;2023-04-24T13:14:39;5.43;;;2.85;;
70216;SDS011;65567;55.684;37.570;2023-04-24T13:17:05;3.42;;;1.88;;
70216;SDS011;65567;55.684;37.570;2023-04-24T13:19:35;4.25;;;3.00;;
70216;SDS011;65567;55.684;37.570;2023-04-24T13:22:05;8.55;;;3.35;;
70216;SDS011;65567;55.684;37.570;2023-04-24T13:24:32;4.05;;;2.92;;
70216;SDS011;65567;55.684;37.570;2023-04-24T13:26:58;8.77;;;3.75;;
70216;SDS011;65567;55.684;37.570;2023-04-24T13:29:25;7.03;;;3.45;;
70216;SDS011;65567;55.684;37.570;2023-04-24T13:31:52;6.68;;;3.13;;
70216;SDS011;65567;55.684;37.570;2023-04-24T13:34:23;19.23;;;3.83;;
70216;SDS011;65567;55.684;37.570;2023-04-24T13:36:50;5.53;;;2.78;;
70216;SDS011;65567;55.684;37.570;2023-04-24T13:39:18;4.80;;;2.47;;
70216;SDS011;65567;55.684;37.570;2023-04-24T13:41:44;5.90;;;2.92;;
70216;SDS011;65567;55.684;37.570;2023-04-24T13:44:13;5.70;;;3.10;;
70216;SDS011;65567;55.684;37.570;2023-04-24T13:46:40;5.00;;;2.90;;
70216;SDS011;65567;55.684;37.570;2023-04-24T13:49:06;4.45;;;2.47;;
70216;SDS011;65567;55.684;37.570;2023-04-24T13:51:32;2.80;;;1.50;;
70216;SDS011;65567;55.684;37.570;2023-04-24T13:53:58;5.28;;;2.60;;
70216;SDS011;65567;55.684;37.570;2023-04-24T13:56:24;5.15;;;2.63;;
70216;SDS011;65567;55.684;37.570;2023-04-24T13:58:52;7.30;;;4.40;;
70216;SDS011;65567;55.684;37.570;2023-04-24T14:01:19;7.30;;;4.90;;
70216;SDS011;65567;55.684;37.570;2023-04-24T14:03:49;6.38;;;3.10;;
70216;SDS011;65567;55.684;37.570;2023-04-24T14:06:15;6.85;;;3.38;;
70216;SDS011;65567;55.684;37.570;2023-04-24T14:08:41;7.07;;;2.85;;
70216;SDS011;65567;55.684;37.570;2023-04-24T14:11:07;5.00;;;2.85;;
70216;SDS011;65567;55.684;37.570;2023-04-24T14:13:33;3.88;;;2.35;;
70216;SDS011;65567;55.684;37.570;2023-04-24T14:16:01;6.60;;;3.03;;
70216;SDS011;65567;55.684;37.570;2023-04-24T14:18:27;3.47;;;1.73;;
70216;SDS011;65567;55.684;37.570;2023-04-24T14:20:54;6.90;;;2.92;;
70216;SDS011;65567;55.684;37.570;2023-04-24T14:23:20;5.97;;;2.45;;
70216;SDS011;65567;55.684;37.570;2023-04-24T14:25:46;7.93;;;2.65;;
70216;SDS011;65567;55.684;37.570;2023-04-24T14:28:16;5.13;;;2.45;;
70216;SDS011;65567;55.684;37.570;2023-04-24T14:30:43;3.30;;;1.80;;
70216;SDS011;65567;55.684;37.570;2023-04-24T14:33:09;5.45;;;2.88;;
70216;SDS011;65567;55.684;37.570;2023-04-24T14:35:36;6.68;;;2.80;;
70216;SDS011;65567;55.684;37.570;2023-04-24T14:38:02;5.32;;;2.08;;
70216;SDS011;65567;55.684;37.570;2023-04-24T14:40:28;6.65;;;2.55;;
70216;SDS011;65567;55.684;37.570;2023-04-24T14:42:54;6.00;;;3.13;;
70216;SDS011;65567;55.684;37.570;2023-04-24T14:45:20;5.38;;;1.90;;
70216;SDS011;65567;55.684;37.570;2023-04-24T14:47:46;5.03;;;2.05;;
70216;SDS011;65567;55.684;37.570;2023-04-24T14:50:15;5.00;;;2.45;;